Time;durP1;ratioP1;P1;durP2;ratioP2;P2;SDS_P1;SDS_P2;PMS_P1;PMS_P2;Temp;Humidity;BMP_temperature;BMP_pressure;BME280_temperature;BME280_humidity;BME280_pressure;Samples;Min_cycle;Max_cycle;Signal;HPM_P1;HPM_P2
2022/12/06 00:51:40;;;;;;;;;;;11.80;99.90;;;;;;5071267;28;19922;-73
2022/12/06 01:06:51;;;;;;;;;;;11.70;99.90;;;;;;5069266;28;19940;-72
2022/12/06 01:10:00;;;;;;;;;;;;;;;;;;;;;
2022/12/06 01:12:33;;;;;;;;;;;11.80;99.90;;;;;;5043272;28;19926;-71
2022/12/06 01:36:53;;;;;;;;;;;11.80;99.90;;;;;;5069731;28;20018;-71
2022/12/06 01:39:19;;;;;;;;;;;11.80;99.90;;;;;;5068109;28;19923;-72
2022/12/06 01:42:25;;;;;;;;;;;;;;;;;;;;;
2022/12/06 01:51:07;;;;;;;;;;;11.70;99.90;;;;;;5070212;28;19950;-72
2022/12/06 01:53:35;;;;;;;;;;;11.70;99.90;;;;;;5077325;28;19913;-72
2022/12/06 01:56:10;;;;;;;;;;;11.60;99.90;;;;;;5107010;27;19922;-74
2022/12/06 01:58:40;;;;;;;;;;;11.50;99.90;;;;;;5096668;28;19915;-73
2022/12/06 02:13:24;;;;;;;;;;;11.30;99.90;;;;;;5104637;28;19954;-72
2022/12/06 02:46:51;;;;;;;;;;;11.30;99.90;;;;;;5026065;28;19975;-73
2022/12/06 02:49:37;;;;;;;;;;;11.20;99.90;;;;;;5060545;28;19974;-72
2022/12/06 03:10:35;;;;;;;;;;;11.10;99.90;;;;;;5114388;28;19916;-72
2022/12/06 03:13:19;;;;;;;;;;;11.00;99.90;;;;;;5117326;28;19919;-72
2022/12/06 03:22:25;;;;;;;;;;;10.90;99.90;;;;;;5031529;28;19935;-72
2022/12/06 03:25:02;;;;;;;;;;;11.00;99.90;;;;;;5047328;28;19916;-71
2022/12/06 03:45:36;;;;;;;;;;;11.00;99.90;;;;;;5035319;28;20281;-72
2022/12/06 03:51:32;;;;;;;;;;;11.00;99.90;;;;;;5088730;28;19927;-72
2022/12/06 03:53:59;;;;;;;;;;;11.10;99.90;;;;;;5126281;27;19911;-72
2022/12/06 04:08:51;;;;;;;;;;;11.00;99.90;;;;;;5110081;28;19919;-72
2022/12/06 04:11:26;;;;;;;;;;;11.00;99.90;;;;;;5114217;28;19923;-72
2022/12/06 04:13:54;;;;;;;;;;;11.00;99.90;;;;;;5097050;28;19991;-72
2022/12/06 04:25:02;;;;;;;;;;;11.00;99.90;;;;;;5101826;28;19919;-72
2022/12/06 04:39:09;;;;;;;;;;;11.10;99.90;;;;;;5107481;28;19963;-72
2022/12/06 04:44:19;;;;;;;;;;;11.10;99.90;;;;;;5116314;28;19915;-72
2022/12/06 04:46:45;;;;;;;;;;;11.00;99.90;;;;;;5114472;28;20279;-71
2022/12/06 04:49:14;;;;;;;;;;;11.00;99.90;;;;;;5114767;28;19908;-71
2022/12/06 04:51:59;;;;;;;;;;;11.00;99.90;;;;;;5115205;28;19922;-71
2022/12/06 04:54:25;;;;;;;;;;;10.90;99.90;;;;;;5113749;27;19911;-71
2022/12/06 04:56:51;;;;;;;;;;;10.80;99.90;;;;;;5113744;28;19911;-72
2022/12/06 04:59:18;;;;;;;;;;;10.90;99.90;;;;;;5114305;27;19938;-72
2022/12/06 05:01:46;;;;;;;;;;;10.80;99.90;;;;;;5117097;27;20431;-72
2022/12/06 05:04:17;;;;;;;;;;;10.80;99.90;;;;;;5113813;28;19921;-72
2022/12/06 05:06:43;;;;;;;;;;;10.70;99.90;;;;;;5107376;28;19911;-73
2022/12/06 05:09:09;;;;;;;;;;;10.70;99.90;;;;;;5112600;27;19919;-72
2022/12/06 05:11:54;;;;;;;;;;;10.60;99.90;;;;;;5111432;27;20398;-72
2022/12/06 05:17:42;;;;;;;;;;;10.60;99.90;;;;;;5086595;28;19981;-73
2022/12/06 05:20:08;;;;;;;;;;;10.60;99.90;;;;;;5105301;28;19912;-72
2022/12/06 05:23:08;;;;;;;;;;;10.50;99.90;;;;;;5101293;28;19914;-72
2022/12/06 05:25:34;;;;;;;;;;;10.50;99.90;;;;;;5114546;28;20003;-73
2022/12/06 05:28:00;;;;;;;;;;;10.50;99.90;;;;;;5107617;28;19947;-72
2022/12/06 05:30:28;;;;;;;;;;;10.50;99.90;;;;;;5083276;28;19920;-72
2022/12/06 05:32:54;;;;;;;;;;;10.40;99.90;;;;;;5096203;28;19957;-72
2022/12/06 05:35:20;;;;;;;;;;;10.30;99.90;;;;;;5111608;28;19912;-72
2022/12/06 05:44:35;;;;;;;;;;;10.30;99.90;;;;;;5071469;28;20185;-73
2022/12/06 05:50:04;;;;;;;;;;;10.30;99.90;;;;;;5039058;28;20274;-72
2022/12/06 05:52:36;;;;;;;;;;;10.30;99.90;;;;;;5070650;28;19960;-72
2022/12/06 05:55:14;;;;;;;;;;;10.30;99.90;;;;;;5095942;27;19919;-73
2022/12/06 05:57:40;;;;;;;;;;;10.30;99.90;;;;;;5128599;27;20023;-72
2022/12/06 06:00:06;;;;;;;;;;;10.30;99.90;;;;;;5114258;28;20344;-73
2022/12/06 06:02:32;;;;;;;;;;;10.30;99.90;;;;;;5109741;28;19937;-72
2022/12/06 06:05:00;;;;;;;;;;;10.30;99.90;;;;;;5114468;28;19912;-72
2022/12/06 06:07:29;;;;;;;;;;;10.30;99.90;;;;;;5115003;28;19908;-72
2022/12/06 06:09:57;;;;;;;;;;;10.30;99.90;;;;;;5115069;28;19908;-71
2022/12/06 06:12:34;;;;;;;;;;;10.30;99.90;;;;;;5106983;28;20400;-72
2022/12/06 06:15:00;;;;;;;;;;;10.30;99.90;;;;;;5100990;28;19924;-70
2022/12/06 06:17:25;;;;;;;;;;;10.30;99.90;;;;;;5091733;28;19915;-70
2022/12/06 06:19:51;;;;;;;;;;;10.30;99.90;;;;;;5108613;28;20010;-71
2022/12/06 06:22:31;;;;;;;;;;;10.30;99.90;;;;;;5109940;28;20410;-70
2022/12/06 06:24:57;;;;;;;;;;;10.20;99.90;;;;;;5103984;28;19965;-70
2022/12/06 06:27:22;;;;;;;;;;;10.20;99.90;;;;;;5115696;28;19916;-70
2022/12/06 06:29:48;;;;;;;;;;;10.20;99.90;;;;;;5112197;28;19919;-70
2022/12/06 06:32:14;;;;;;;;;;;10.30;99.90;;;;;;5112768;28;19915;-71
2022/12/06 06:34:40;;;;;;;;;;;10.20;99.90;;;;;;5092261;28;19916;-70
2022/12/06 06:37:05;;;;;;;;;;;10.20;99.90;;;;;;5108282;28;19919;-70
2022/12/06 06:39:31;;;;;;;;;;;10.20;99.90;;;;;;5111701;28;19912;-70
2022/12/06 06:41:57;;;;;;;;;;;10.10;99.90;;;;;;5109951;28;19998;-70
2022/12/06 06:44:23;;;;;;;;;;;10.10;99.90;;;;;;5113977;28;20393;-69
2022/12/06 06:46:48;;;;;;;;;;;10.00;99.90;;;;;;5109175;28;19949;-69
2022/12/06 06:49:16;;;;;;;;;;;10.00;99.90;;;;;;5109940;27;19945;-70
2022/12/06 06:51:42;;;;;;;;;;;10.10;99.90;;;;;;5113116;28;20457;-69
2022/12/06 06:54:07;;;;;;;;;;;10.10;99.90;;;;;;5105009;27;20003;-69
2022/12/06 06:56:33;;;;;;;;;;;10.00;99.90;;;;;;5108380;28;20295;-68
2022/12/06 06:59:01;;;;;;;;;;;10.00;99.90;;;;;;5114608;27;20262;-69
2022/12/06 07:01:29;;;;;;;;;;;9.90;99.90;;;;;;5113992;28;19938;-69
2022/12/06 07:03:55;;;;;;;;;;;9.90;99.90;;;;;;5113151;28;19934;-69
2022/12/06 07:06:21;;;;;;;;;;;9.90;99.90;;;;;;5114185;27;19915;-69
2022/12/06 07:08:47;;;;;;;;;;;9.90;99.90;;;;;;5111684;28;19912;-69
2022/12/06 07:11:18;;;;;;;;;;;9.90;99.90;;;;;;5112344;28;19915;-69
2022/12/06 07:13:44;;;;;;;;;;;10.00;99.90;;;;;;5109161;28;19935;-69
2022/12/06 07:16:14;;;;;;;;;;;9.90;99.90;;;;;;5111481;27;19920;-69
2022/12/06 07:21:43;;;;;;;;;;;10.10;99.90;;;;;;5114915;27;20319;-68
2022/12/06 07:24:09;;;;;;;;;;;10.20;99.90;;;;;;5113205;27;19995;-70
2022/12/06 07:26:35;;;;;;;;;;;10.20;99.90;;;;;;5108676;27;19947;-70
2022/12/06 07:29:06;;;;;;;;;;;10.30;99.90;;;;;;5115610;28;19967;-69
2022/12/06 07:31:32;;;;;;;;;;;10.20;99.90;;;;;;5114019;28;19915;-69
2022/12/06 07:34:00;;;;;;;;;;;10.30;99.90;;;;;;5108518;27;19918;-68
2022/12/06 07:36:27;;;;;;;;;;;10.40;99.90;;;;;;5105217;27;19968;-69
2022/12/06 07:38:54;;;;;;;;;;;10.40;99.90;;;;;;5113179;28;20071;-72
2022/12/06 07:46:49;;;;;;;;;;;10.40;99.90;;;;;;5109068;28;19966;-72
2022/12/06 07:49:16;;;;;;;;;;;10.50;99.90;;;;;;5112423;28;19912;-70
2022/12/06 07:51:42;;;;;;;;;;;10.50;99.90;;;;;;5090830;28;20023;-69
2022/12/06 07:54:08;;;;;;;;;;;10.50;99.90;;;;;;5105039;27;19991;-70
2022/12/06 07:56:34;;;;;;;;;;;10.50;99.90;;;;;;5107228;28;20267;-70
2022/12/06 07:59:00;;;;;;;;;;;10.60;99.90;;;;;;5109466;28;19919;-72
2022/12/06 08:01:26;;;;;;;;;;;10.80;99.90;;;;;;5109356;27;19951;-71
2022/12/06 08:03:54;;;;;;;;;;;10.80;99.90;;;;;;5110495;28;19912;-72
2022/12/06 08:06:19;;;;;;;;;;;10.80;99.90;;;;;;5114602;28;19936;-72
2022/12/06 08:08:45;;;;;;;;;;;10.90;99.90;;;;;;5113473;28;20378;-73
2022/12/06 08:11:11;;;;;;;;;;;10.70;99.90;;;;;;5107763;28;20272;-72
2022/12/06 08:13:37;;;;;;;;;;;10.70;99.90;;;;;;5096980;28;19908;-73
2022/12/06 08:16:06;;;;;;;;;;;10.70;99.90;;;;;;5115932;28;19920;-71
2022/12/06 08:18:32;;;;;;;;;;;10.60;99.90;;;;;;5116429;28;19915;-72
2022/12/06 08:20:58;;;;;;;;;;;10.60;99.90;;;;;;5114117;28;19912;-71
2022/12/06 08:23:24;;;;;;;;;;;10.60;99.90;;;;;;5115701;28;19912;-72
2022/12/06 08:26:19;;;;;;;;;;;10.60;99.90;;;;;;5115349;28;20006;-72
2022/12/06 08:28:44;;;;;;;;;;;10.60;99.90;;;;;;5081958;28;19918;-72
2022/12/06 08:31:15;;;;;;;;;;;10.60;99.90;;;;;;5114376;28;19911;-70
2022/12/06 08:33:41;;;;;;;;;;;10.60;99.90;;;;;;5111801;28;19924;-71
2022/12/06 08:36:13;;;;;;;;;;;10.70;99.90;;;;;;5113603;28;20467;-71
2022/12/06 08:38:42;;;;;;;;;;;10.70;99.90;;;;;;5108748;27;19954;-71
2022/12/06 08:44:02;;;;;;;;;;;10.80;99.90;;;;;;5108329;28;19943;-71
2022/12/06 08:46:28;;;;;;;;;;;10.80;99.90;;;;;;5114392;28;19914;-71
2022/12/06 08:48:57;;;;;;;;;;;10.90;99.90;;;;;;5110354;28;19916;-74
2022/12/06 08:51:24;;;;;;;;;;;10.90;99.90;;;;;;5103207;28;20274;-71
2022/12/06 08:53:54;;;;;;;;;;;10.90;99.90;;;;;;5114326;28;19920;-71
2022/12/06 08:56:51;;;;;;;;;;;;;;;;;;;;;
2022/12/06 08:59:09;;;;;;;;;;;11.00;99.90;;;;;;5086391;28;19947;-72
2022/12/06 09:01:35;;;;;;;;;;;11.00;99.90;;;;;;5092093;28;19912;-72
2022/12/06 09:04:01;;;;;;;;;;;11.00;99.90;;;;;;5092870;28;19919;-73
2022/12/06 09:06:30;;;;;;;;;;;11.00;99.90;;;;;;5091198;28;20486;-70
2022/12/06 09:08:57;;;;;;;;;;;11.10;99.90;;;;;;5068755;28;19918;-71
2022/12/06 09:11:23;;;;;;;;;;;11.20;99.90;;;;;;5093205;28;19923;-73
2022/12/06 09:13:49;;;;;;;;;;;11.20;99.90;;;;;;5090935;28;19908;-71
2022/12/06 09:16:33;;;;;;;;;;;11.30;99.90;;;;;;5092636;28;19916;-73
2022/12/06 09:19:06;;;;;;;;;;;11.40;99.90;;;;;;5088502;28;20287;-72
2022/12/06 09:21:33;;;;;;;;;;;11.40;99.90;;;;;;5093890;28;19963;-72
2022/12/06 09:23:59;;;;;;;;;;;11.40;99.90;;;;;;5095400;28;19924;-73
2022/12/06 09:26:25;;;;;;;;;;;11.50;99.90;;;;;;5090281;28;19912;-72
2022/12/06 09:28:55;;;;;;;;;;;11.50;99.90;;;;;;5094606;28;20433;-72
2022/12/06 09:31:21;;;;;;;;;;;11.50;99.90;;;;;;5091705;28;19948;-73
2022/12/06 09:33:47;;;;;;;;;;;11.50;99.90;;;;;;5087346;28;20347;-72
2022/12/06 09:36:23;;;;;;;;;;;11.60;99.90;;;;;;5068982;28;19919;-73
2022/12/06 09:38:53;;;;;;;;;;;11.70;99.90;;;;;;5091989;28;19926;-72
2022/12/06 09:41:46;;;;;;;;;;;11.70;99.90;;;;;;5094865;28;19952;-73
2022/12/06 09:44:32;;;;;;;;;;;11.80;99.90;;;;;;5094779;28;19954;-73
2022/12/06 09:47:34;;;;;;;;;;;11.80;99.90;;;;;;5070060;28;19912;-72
2022/12/06 09:50:07;;;;;;;;;;;11.90;99.90;;;;;;5083970;28;19923;-76
2022/12/06 09:59:01;;;;;;;;;;;12.00;99.90;;;;;;5092515;28;19919;-73
2022/12/06 10:01:42;;;;;;;;;;;12.10;99.90;;;;;;5093319;28;19919;-73
2022/12/06 10:04:34;;;;;;;;;;;12.10;99.90;;;;;;5093682;28;19919;-72
2022/12/06 10:07:23;;;;;;;;;;;12.20;99.90;;;;;;5088645;28;19924;-73
2022/12/06 10:10:07;;;;;;;;;;;12.20;99.90;;;;;;5086570;28;19908;-72
2022/12/06 10:12:42;;;;;;;;;;;12.30;99.90;;;;;;5093034;28;19984;-73
2022/12/06 10:15:29;;;;;;;;;;;12.40;99.90;;;;;;5092224;28;20406;-72
2022/12/06 10:18:17;;;;;;;;;;;12.40;99.90;;;;;;5088566;28;19924;-72
2022/12/06 10:21:12;;;;;;;;;;;12.50;99.90;;;;;;5082832;28;19912;-72
2022/12/06 10:26:48;;;;;;;;;;;12.50;99.90;;;;;;5031899;28;20423;-73
2022/12/06 10:29:27;;;;;;;;;;;12.60;99.90;;;;;;5107689;28;20013;-72
2022/12/06 10:32:05;;;;;;;;;;;12.60;99.90;;;;;;5092252;28;19916;-73
2022/12/06 10:34:52;;;;;;;;;;;12.70;99.90;;;;;;5093031;28;20269;-72
2022/12/06 10:37:33;;;;;;;;;;;12.70;99.90;;;;;;5080267;28;19966;-72
2022/12/06 10:40:17;;;;;;;;;;;12.70;99.90;;;;;;5093393;28;19991;-72
2022/12/06 10:43:08;;;;;;;;;;;12.80;99.90;;;;;;5093357;28;19908;-72
2022/12/06 10:48:38;;;;;;;;;;;12.80;99.90;;;;;;5092941;28;19919;-73
2022/12/06 10:51:08;;;;;;;;;;;12.80;99.90;;;;;;5093171;28;19912;-71
2022/12/06 10:56:46;;;;;;;;;;;13.00;99.90;;;;;;5052902;28;19918;-72
2022/12/06 10:59:32;;;;;;;;;;;13.00;99.90;;;;;;5093316;28;19919;-73
2022/12/06 11:02:00;;;;;;;;;;;13.10;99.90;;;;;;5093647;28;19908;-72
2022/12/06 11:04:32;;;;;;;;;;;13.10;99.90;;;;;;5093025;28;20352;-72
2022/12/06 11:07:08;;;;;;;;;;;13.00;99.90;;;;;;5092122;28;19909;-72
2022/12/06 11:09:48;;;;;;;;;;;;;;;;;;;;;
2022/12/06 11:12:26;;;;;;;;;;;13.00;99.90;;;;;;5013514;28;19917;-72
2022/12/06 11:15:03;;;;;;;;;;;13.00;99.90;;;;;;5079987;28;20379;-72
2022/12/06 11:17:49;;;;;;;;;;;13.10;99.90;;;;;;5093002;28;19978;-72
2022/12/06 11:20:44;;;;;;;;;;;13.20;99.90;;;;;;5093238;28;19915;-72
2022/12/06 11:23:33;;;;;;;;;;;13.20;99.90;;;;;;5093495;28;20440;-72
2022/12/06 11:26:05;;;;;;;;;;;13.30;99.90;;;;;;5092270;28;19927;-72
2022/12/06 11:28:49;;;;;;;;;;;13.30;99.90;;;;;;5090153;28;19912;-72
2022/12/06 11:31:49;;;;;;;;;;;13.20;99.90;;;;;;5092367;28;20007;-72
2022/12/06 11:34:21;;;;;;;;;;;13.30;99.90;;;;;;5091827;28;19960;-72
2022/12/06 11:37:01;;;;;;;;;;;13.20;99.90;;;;;;5081751;28;19919;-72
2022/12/06 11:39:30;;;;;;;;;;;13.10;99.90;;;;;;5098128;28;19913;-73
2022/12/06 11:41:57;;;;;;;;;;;13.00;99.90;;;;;;5090774;28;20445;-72
2022/12/06 11:44:28;;;;;;;;;;;13.10;99.90;;;;;;5096768;28;20260;-74
2022/12/06 11:46:55;;;;;;;;;;;13.10;99.90;;;;;;5095014;28;20003;-72
2022/12/06 11:49:30;;;;;;;;;;;13.10;99.90;;;;;;5095751;28;19915;-70
2022/12/06 11:52:21;;;;;;;;;;;13.10;99.90;;;;;;5095385;28;20282;-70
2022/12/06 11:58:51;;;;;;;;;;;13.20;99.90;;;;;;5092631;28;19927;-70
2022/12/06 12:00:59;;;;;;;;;;;13.20;99.90;;;;;;5085603;28;19975;-70
2022/12/06 12:06:52;;;;;;;;;;;13.20;99.90;;;;;;5096096;28;19938;-68
2022/12/06 12:09:18;;;;;;;;;;;13.20;99.90;;;;;;5026335;28;20012;-69
2022/12/06 12:11:52;;;;;;;;;;;13.20;99.90;;;;;;5087507;28;19916;-69
2022/12/06 12:14:23;;;;;;;;;;;13.20;99.90;;;;;;5095066;28;20017;-70
2022/12/06 12:17:00;;;;;;;;;;;13.10;99.90;;;;;;5093636;28;19927;-70
2022/12/06 12:19:46;;;;;;;;;;;13.10;99.90;;;;;;5086235;28;19921;-69
2022/12/06 12:31:30;;;;;;;;;;;13.10;99.90;;;;;;5032201;28;19972;-68
2022/12/06 12:34:15;;;;;;;;;;;13.10;99.90;;;;;;5092123;28;20006;-69
2022/12/06 12:36:45;;;;;;;;;;;13.10;99.90;;;;;;5091492;28;19916;-68
2022/12/06 12:39:20;;;;;;;;;;;13.10;99.90;;;;;;5091442;28;19908;-69
2022/12/06 12:41:46;;;;;;;;;;;13.10;99.90;;;;;;5075054;28;19908;-69
2022/12/06 12:44:12;;;;;;;;;;;13.10;99.90;;;;;;5076462;28;19920;-69
2022/12/06 12:46:49;;;;;;;;;;;13.10;99.90;;;;;;5094781;28;19976;-68
2022/12/06 12:49:23;;;;;;;;;;;13.10;99.90;;;;;;5095799;28;19908;-69
2022/12/06 12:52:08;;;;;;;;;;;13.10;99.90;;;;;;5095610;28;19919;-69
2022/12/06 12:54:37;;;;;;;;;;;13.00;99.90;;;;;;5090288;28;20291;-68
2022/12/06 12:57:10;;;;;;;;;;;13.10;99.90;;;;;;5094042;28;20363;-71
2022/12/06 12:59:37;;;;;;;;;;;13.10;99.90;;;;;;5093304;28;19908;-69
2022/12/06 13:08:25;;;;;;;;;;;13.00;99.90;;;;;;5012639;28;20730;-69
2022/12/06 13:11:09;;;;;;;;;;;13.00;99.90;;;;;;5022935;28;19925;-69
2022/12/06 13:13:41;;;;;;;;;;;13.10;99.90;;;;;;5030856;28;20075;-69
2022/12/06 13:19:27;;;;;;;;;;;13.00;99.90;;;;;;4991676;28;20251;-69
2022/12/06 13:21:55;;;;;;;;;;;13.10;99.90;;;;;;4989676;28;19917;-69
2022/12/06 13:30:58;;;;;;;;;;;;;;;;;;;;;
2022/12/06 13:33:52;;;;;;;;;;;13.00;99.90;;;;;;5039034;28;19920;-72
2022/12/06 13:36:27;;;;;;;;;;;13.00;99.90;;;;;;5090486;28;21284;-70
2022/12/06 13:38:54;;;;;;;;;;;12.90;99.90;;;;;;5093479;28;20383;-72
2022/12/06 13:48:10;;;;;;;;;;;;;;;;;;;;;
2022/12/06 13:50:36;;;;;;;;;;;12.70;99.90;;;;;;5070061;28;19924;-73
2022/12/06 13:56:37;;;;;;;;;;;12.70;99.90;;;;;;5079813;28;19950;-70
2022/12/06 14:02:25;;;;;;;;;;;12.60;99.90;;;;;;4996827;28;20129;-71
2022/12/06 14:05:12;;;;;;;;;;;12.50;99.90;;;;;;4992886;28;19960;-69
2022/12/06 14:07:38;;;;;;;;;;;12.50;99.90;;;;;;5080264;28;19933;-72
2022/12/06 14:10:36;;;;;;;;;;;12.50;99.90;;;;;;5092797;28;19915;-70
2022/12/06 14:13:12;;;;;;;;;;;;;;;;;;;;;
2022/12/06 14:15:54;;;;;;;;;;;12.40;99.90;;;;;;5081319;28;19914;-71
2022/12/06 14:18:40;;;;;;;;;;;12.30;99.90;;;;;;5084226;28;19912;-70
2022/12/06 14:21:05;;;;;;;;;;;12.30;99.90;;;;;;5081910;28;19967;-70
2022/12/06 14:23:33;;;;;;;;;;;12.30;99.90;;;;;;5091642;28;19912;-71
2022/12/06 14:26:18;;;;;;;;;;;12.40;99.90;;;;;;5088276;28;20372;-70
2022/12/06 14:29:28;;;;;;;;;;;12.40;99.90;;;;;;5090525;28;19943;-70
2022/12/06 14:34:59;;;;;;;;;;;12.30;99.90;;;;;;4987688;28;19936;-70
2022/12/06 14:37:25;;;;;;;;;;;12.30;99.90;;;;;;5069019;28;19912;-70
2022/12/06 14:39:54;;;;;;;;;;;12.30;99.90;;;;;;5089161;28;19928;-70
2022/12/06 14:48:10;;;;;;;;;;;12.30;99.90;;;;;;5087860;28;20341;-70
2022/12/06 14:50:39;;;;;;;;;;;12.30;99.90;;;;;;5091700;28;19979;-70
2022/12/06 14:53:24;;;;;;;;;;;;;;;;;;;;;
2022/12/06 14:55:52;;;;;;;;;;;12.20;99.90;;;;;;5090647;28;19930;-71
2022/12/06 14:58:40;;;;;;;;;;;12.10;99.90;;;;;;5084657;28;19913;-72
2022/12/06 15:01:16;;;;;;;;;;;12.10;99.90;;;;;;5093138;28;20334;-69
2022/12/06 15:03:43;;;;;;;;;;;12.10;99.90;;;;;;5093228;28;20343;-68
2022/12/06 15:06:11;;;;;;;;;;;12.00;99.90;;;;;;5079200;28;19920;-68
2022/12/06 15:08:38;;;;;;;;;;;12.00;99.90;;;;;;5080155;28;19916;-68
2022/12/06 15:11:10;;;;;;;;;;;11.90;99.90;;;;;;5088787;28;19963;-66
2022/12/06 15:14:05;;;;;;;;;;;;;;;;;;;;;
2022/12/06 15:16:31;;;;;;;;;;;11.80;99.90;;;;;;5091217;28;19912;-72
2022/12/06 15:19:00;;;;;;;;;;;11.80;99.90;;;;;;5096949;28;19959;-72
2022/12/06 15:21:26;;;;;;;;;;;11.80;99.90;;;;;;5090722;28;19944;-76
2022/12/06 15:23:56;;;;;;;;;;;11.70;99.90;;;;;;5091120;28;19946;-71
2022/12/06 15:29:07;;;;;;;;;;;11.60;99.90;;;;;;5086276;28;19962;-70
2022/12/06 15:31:48;;;;;;;;;;;11.60;99.90;;;;;;5093460;28;19916;-74
2022/12/06 15:34:34;;;;;;;;;;;11.60;99.90;;;;;;5091278;28;19947;-71
2022/12/06 15:37:00;;;;;;;;;;;11.50;99.90;;;;;;5091887;28;19916;-71
2022/12/06 15:39:47;;;;;;;;;;;11.50;99.90;;;;;;5094067;28;19920;-71
2022/12/06 15:42:25;;;;;;;;;;;11.40;99.90;;;;;;5093776;28;20006;-75
2022/12/06 15:44:51;;;;;;;;;;;11.40;99.90;;;;;;5095147;28;20041;-71
2022/12/06 15:47:20;;;;;;;;;;;11.40;99.90;;;;;;5071912;28;19951;-71
2022/12/06 15:49:46;;;;;;;;;;;11.40;99.90;;;;;;5077319;28;19916;-71
2022/12/06 15:52:21;;;;;;;;;;;11.40;99.90;;;;;;5090098;28;19919;-71
2022/12/06 15:54:47;;;;;;;;;;;11.30;99.90;;;;;;5068414;28;19923;-71
2022/12/06 15:57:13;;;;;;;;;;;11.30;99.90;;;;;;5093123;28;19912;-76
2022/12/06 15:59:39;;;;;;;;;;;11.20;99.90;;;;;;5095381;28;20003;-71
2022/12/06 16:02:12;;;;;;;;;;;11.10;99.90;;;;;;5093707;28;19955;-71
2022/12/06 16:04:39;;;;;;;;;;;11.10;99.90;;;;;;5096504;28;19919;-71
2022/12/06 16:07:18;;;;;;;;;;;11.00;99.90;;;;;;5090435;28;19970;-70
2022/12/06 16:09:44;;;;;;;;;;;10.80;99.90;;;;;;5088824;28;19920;-71
2022/12/06 16:12:10;;;;;;;;;;;10.80;99.90;;;;;;5084950;28;19939;-69
2022/12/06 16:14:35;;;;;;;;;;;10.70;99.90;;;;;;5092028;28;19920;-70
2022/12/06 16:17:02;;;;;;;;;;;10.60;99.90;;;;;;5092601;28;19923;-70
2022/12/06 16:20:29;;;;;;;;;;;10.70;99.90;;;;;;5093051;28;19913;-69
2022/12/06 16:22:14;;;;;;;;;;;10.70;99.90;;;;;;5081782;28;20398;-69
2022/12/06 16:24:43;;;;;;;;;;;10.70;99.90;;;;;;5074899;28;19912;-71
2022/12/06 16:27:11;;;;;;;;;;;10.60;99.90;;;;;;5095055;28;19916;-70
2022/12/06 16:29:37;;;;;;;;;;;10.60;99.90;;;;;;5086807;28;20003;-70
2022/12/06 16:32:03;;;;;;;;;;;10.50;99.90;;;;;;5086587;28;20387;-71
2022/12/06 16:34:29;;;;;;;;;;;10.50;99.90;;;;;;5094513;28;19916;-71
2022/12/06 16:37:09;;;;;;;;;;;10.40;99.90;;;;;;5093671;28;19920;-71
2022/12/06 16:39:34;;;;;;;;;;;10.40;99.90;;;;;;5092687;28;19912;-70
2022/12/06 16:42:00;;;;;;;;;;;10.40;99.90;;;;;;5088431;28;20005;-71
2022/12/06 16:44:26;;;;;;;;;;;10.30;99.90;;;;;;5091118;28;19935;-71
2022/12/06 16:46:52;;;;;;;;;;;10.30;99.90;;;;;;5092779;28;19942;-71
2022/12/06 16:49:20;;;;;;;;;;;10.30;99.90;;;;;;5089452;28;19999;-71
2022/12/06 16:51:45;;;;;;;;;;;10.30;99.90;;;;;;5083952;28;20436;-71
2022/12/06 16:54:21;;;;;;;;;;;;;;;;;;;;;
2022/12/06 16:56:47;;;;;;;;;;;10.20;99.90;;;;;;5085026;28;19912;-71
2022/12/06 16:59:14;;;;;;;;;;;10.10;99.90;;;;;;5067554;28;20012;-71
2022/12/06 17:01:47;;;;;;;;;;;10.20;99.90;;;;;;5071632;28;19977;-71
2022/12/06 17:04:13;;;;;;;;;;;10.20;99.90;;;;;;5090597;28;20294;-71
2022/12/06 17:06:39;;;;;;;;;;;10.20;99.90;;;;;;5094196;28;20208;-72
2022/12/06 17:09:04;;;;;;;;;;;10.20;99.90;;;;;;5094022;28;19996;-71
2022/12/06 17:14:17;;;;;;;;;;;10.10;99.90;;;;;;5090185;28;19985;-70
2022/12/06 17:16:44;;;;;;;;;;;10.10;99.90;;;;;;5092692;28;20363;-70
2022/12/06 17:19:14;;;;;;;;;;;10.20;99.90;;;;;;5089380;28;19912;-70
2022/12/06 17:21:42;;;;;;;;;;;10.20;99.90;;;;;;5093006;28;19959;-70
2022/12/06 17:24:08;;;;;;;;;;;10.10;99.90;;;;;;5067614;28;19913;-70
2022/12/06 17:26:34;;;;;;;;;;;10.10;99.90;;;;;;5093802;28;20343;-71
2022/12/06 17:29:03;;;;;;;;;;;10.20;99.90;;;;;;5097063;28;19943;-71
2022/12/06 17:31:31;;;;;;;;;;;10.30;99.90;;;;;;5073249;28;19916;-70
2022/12/06 17:33:58;;;;;;;;;;;10.20;99.90;;;;;;5089288;28;19921;-71
2022/12/06 17:36:24;;;;;;;;;;;10.20;99.90;;;;;;5094388;28;19916;-70
2022/12/06 17:38:50;;;;;;;;;;;10.20;99.90;;;;;;5089126;28;19916;-71
2022/12/06 17:44:06;;;;;;;;;;;10.30;99.90;;;;;;5094012;28;19919;-71
2022/12/06 17:46:35;;;;;;;;;;;10.30;99.90;;;;;;5094281;28;19908;-71
2022/12/06 17:49:01;;;;;;;;;;;10.30;99.90;;;;;;5091622;28;19916;-70
2022/12/06 17:51:27;;;;;;;;;;;10.20;99.90;;;;;;5094285;28;19912;-72
2022/12/06 17:53:56;;;;;;;;;;;10.20;99.90;;;;;;5090242;28;20385;-70
2022/12/06 17:56:54;;;;;;;;;;;;;;;;;;;;;
2022/12/06 17:59:24;;;;;;;;;;;10.10;99.90;;;;;;5090746;28;19941;-71
2022/12/06 18:01:58;;;;;;;;;;;10.00;99.90;;;;;;5082199;28;19980;-71
2022/12/06 18:04:28;;;;;;;;;;;10.00;99.90;;;;;;5089889;28;19918;-71
2022/12/06 18:07:02;;;;;;;;;;;9.90;99.90;;;;;;5071626;28;19935;-71
2022/12/06 18:09:28;;;;;;;;;;;9.90;99.90;;;;;;5068867;28;19951;-70
2022/12/06 18:11:54;;;;;;;;;;;9.90;99.90;;;;;;5069138;28;19947;-70
2022/12/06 18:14:23;;;;;;;;;;;9.80;99.90;;;;;;5089269;28;20013;-71
2022/12/06 18:16:49;;;;;;;;;;;9.80;99.90;;;;;;5087708;28;20282;-71
2022/12/06 18:19:16;;;;;;;;;;;9.90;99.90;;;;;;5091836;28;20010;-71
2022/12/06 18:21:42;;;;;;;;;;;10.00;99.90;;;;;;5090987;28;19920;-70
2022/12/06 18:24:13;;;;;;;;;;;9.90;99.90;;;;;;5090037;28;20428;-73
2022/12/06 18:26:48;;;;;;;;;;;9.90;99.90;;;;;;5094116;28;20388;-70
2022/12/06 18:29:26;;;;;;;;;;;9.90;99.90;;;;;;5093625;28;20076;-69
2022/12/06 18:31:55;;;;;;;;;;;10.00;99.90;;;;;;5075263;28;19927;-72
2022/12/06 18:34:21;;;;;;;;;;;9.90;99.90;;;;;;5092637;28;20356;-69
2022/12/06 18:36:57;;;;;;;;;;;9.90;99.90;;;;;;5078709;28;19908;-70
2022/12/06 18:39:26;;;;;;;;;;;9.90;99.90;;;;;;5090488;28;19970;-70
2022/12/06 18:41:52;;;;;;;;;;;9.90;99.90;;;;;;5088202;28;20025;-70
2022/12/06 18:44:18;;;;;;;;;;;9.90;99.90;;;;;;5097819;28;19916;-70
2022/12/06 18:46:44;;;;;;;;;;;9.80;99.90;;;;;;5097969;28;19947;-69
2022/12/06 18:49:17;;;;;;;;;;;9.80;99.90;;;;;;5096335;28;19935;-70
2022/12/06 18:51:43;;;;;;;;;;;9.80;99.90;;;;;;5086279;28;19919;-70
2022/12/06 18:54:09;;;;;;;;;;;9.70;99.90;;;;;;5091329;28;19965;-70
2022/12/06 18:56:35;;;;;;;;;;;9.70;99.90;;;;;;5094800;28;19915;-70
2022/12/06 18:59:02;;;;;;;;;;;9.80;99.90;;;;;;5077115;28;20248;-70
2022/12/06 19:01:29;;;;;;;;;;;9.80;99.90;;;;;;5112816;27;19962;-72
2022/12/06 19:03:55;;;;;;;;;;;9.80;99.90;;;;;;5096733;28;19973;-70
2022/12/06 19:06:23;;;;;;;;;;;9.80;99.90;;;;;;5094247;28;19912;-70
2022/12/06 19:08:52;;;;;;;;;;;9.80;99.90;;;;;;5096599;28;19966;-69
2022/12/06 19:11:18;;;;;;;;;;;9.80;99.90;;;;;;5089811;28;19924;-70
2022/12/06 19:13:52;;;;;;;;;;;9.90;99.90;;;;;;5094814;28;19915;-69
2022/12/06 19:16:24;;;;;;;;;;;9.80;99.90;;;;;;5096293;28;19927;-70
2022/12/06 19:18:50;;;;;;;;;;;9.80;99.90;;;;;;5091646;28;19991;-71
2022/12/06 19:21:26;;;;;;;;;;;9.70;99.90;;;;;;5095285;28;20007;-70
2022/12/06 19:23:55;;;;;;;;;;;9.70;99.90;;;;;;5092929;28;19958;-70
2022/12/06 19:26:22;;;;;;;;;;;9.70;99.90;;;;;;5096451;28;20003;-73
2022/12/06 19:28:50;;;;;;;;;;;9.60;99.90;;;;;;5090388;28;19919;-70
2022/12/06 19:31:16;;;;;;;;;;;9.60;99.90;;;;;;5093790;28;19959;-69
2022/12/06 19:33:45;;;;;;;;;;;9.60;99.90;;;;;;5096344;28;20174;-70
2022/12/06 19:36:12;;;;;;;;;;;9.50;99.90;;;;;;5078360;28;19939;-70
2022/12/06 19:38:38;;;;;;;;;;;9.60;99.90;;;;;;5076293;28;19916;-70
2022/12/06 19:41:05;;;;;;;;;;;9.60;99.90;;;;;;5093008;28;19909;-70
2022/12/06 19:46:19;;;;;;;;;;;9.70;99.90;;;;;;5095999;28;20287;-70
2022/12/06 19:48:46;;;;;;;;;;;9.60;99.90;;;;;;5094078;28;19942;-69
2022/12/06 19:51:11;;;;;;;;;;;9.60;99.90;;;;;;5095581;28;19916;-70
2022/12/06 19:53:38;;;;;;;;;;;9.60;99.90;;;;;;5094790;28;20416;-70
2022/12/06 19:56:06;;;;;;;;;;;9.70;99.90;;;;;;5087666;28;19912;-69
2022/12/06 19:58:32;;;;;;;;;;;9.60;99.90;;;;;;5096109;28;20279;-71
2022/12/06 20:00:58;;;;;;;;;;;9.60;99.90;;;;;;5090960;28;20635;-70
2022/12/06 20:03:24;;;;;;;;;;;9.60;99.90;;;;;;5088268;28;19977;-70
2022/12/06 20:05:58;;;;;;;;;;;9.60;99.90;;;;;;5091528;28;19916;-70
2022/12/06 20:08:24;;;;;;;;;;;9.60;99.90;;;;;;5092176;28;20337;-70
2022/12/06 20:10:50;;;;;;;;;;;9.50;99.90;;;;;;5088360;28;19924;-71
2022/12/06 20:13:15;;;;;;;;;;;9.50;99.90;;;;;;5090865;28;20362;-70
2022/12/06 20:15:41;;;;;;;;;;;9.50;99.90;;;;;;5095450;28;20260;-69
2022/12/06 20:18:07;;;;;;;;;;;9.40;99.90;;;;;;5093616;28;19934;-70